createdAt,value
2023-05-14T00:00:04.103Z,10.57
2023-05-14T00:02:30.740Z,10.10
2023-05-14T00:04:57.307Z,11.27
2023-05-14T00:07:23.857Z,11.40
2023-05-14T00:09:50.305Z,9.65
2023-05-14T00:12:16.777Z,10.05
2023-05-14T00:14:43.238Z,11.63
2023-05-14T00:17:09.740Z,16.77
2023-05-14T00:19:36.539Z,11.57
2023-05-14T00:22:03.010Z,12.82
2023-05-14T00:24:29.452Z,11.20
2023-05-14T00:26:56.276Z,12.50
2023-05-14T00:29:22.731Z,12.45
2023-05-14T00:31:49.334Z,13.48
2023-05-14T00:34:15.959Z,11.13
2023-05-14T00:36:42.545Z,13.68
2023-05-14T00:39:09.134Z,14.13
2023-05-14T00:41:35.916Z,11.20
2023-05-14T00:44:02.436Z,15.68
2023-05-14T00:46:29.030Z,13.10
2023-05-14T00:48:55.929Z,18.02
2023-05-14T00:51:22.471Z,12.85
2023-05-14T00:53:49.566Z,11.02
2023-05-14T00:56:16.663Z,10.98
2023-05-14T00:58:43.141Z,12.82
2023-05-14T01:01:10.003Z,13.65
2023-05-14T01:03:36.851Z,13.02
2023-05-14T01:06:15.462Z,15.35
2023-05-14T01:08:44.894Z,10.73
2023-05-14T01:11:29.064Z,14.32
2023-05-14T01:14:22.750Z,12.18
2023-05-14T01:16:52.696Z,12.43
2023-05-14T01:19:38.644Z,16.80
2023-05-14T01:22:05.555Z,12.65
2023-05-14T01:24:32.076Z,13.07
2023-05-14T01:27:15.086Z,12.05
2023-05-14T01:29:48.689Z,11.07
2023-05-14T01:32:17.697Z,13.88
2023-05-14T01:34:47.242Z,12.65
2023-05-14T01:37:13.982Z,12.40
2023-05-14T01:39:42.091Z,13.65
2023-05-14T01:42:09.175Z,15.57
2023-05-14T01:44:36.355Z,13.55
2023-05-14T01:47:03.501Z,14.15
2023-05-14T01:49:30.038Z,11.02
2023-05-14T01:51:56.525Z,14.95
2023-05-14T01:54:23.265Z,11.95
2023-05-14T01:56:49.961Z,14.93
2023-05-14T01:59:16.414Z,10.88
2023-05-14T02:01:43.209Z,13.68
2023-05-14T02:04:09.832Z,14.25
2023-05-14T02:06:36.350Z,12.35
2023-05-14T02:09:05.367Z,13.48
2023-05-14T02:11:31.802Z,14.52
2023-05-14T02:13:58.237Z,13.45
2023-05-14T02:16:24.756Z,15.98
2023-05-14T02:18:51.342Z,13.10
2023-05-14T02:21:17.842Z,12.10
2023-05-14T02:23:44.415Z,14.88
2023-05-14T02:26:11.457Z,12.45
2023-05-14T02:28:38.139Z,11.15
2023-05-14T02:31:04.681Z,11.80
2023-05-14T02:33:31.362Z,12.98
2023-05-14T02:35:57.890Z,18.35
2023-05-14T02:38:24.365Z,13.35
2023-05-14T02:40:50.801Z,14.02
2023-05-14T02:43:17.317Z,11.90
2023-05-14T02:45:44.139Z,14.35
2023-05-14T02:48:10.714Z,14.77
2023-05-14T02:50:37.239Z,13.68
2023-05-14T02:53:03.797Z,16.38
2023-05-14T02:55:30.355Z,13.75
2023-05-14T02:57:56.933Z,15.63
2023-05-14T03:00:24.249Z,13.60
2023-05-14T03:02:51.313Z,16.80
2023-05-14T03:05:18.542Z,15.55
2023-05-14T03:07:45.028Z,14.55
2023-05-14T03:10:12.147Z,17.40
2023-05-14T03:12:38.712Z,15.13
2023-05-14T03:15:05.545Z,13.50
2023-05-14T03:17:31.914Z,14.88
2023-05-14T03:19:58.410Z,13.13
2023-05-14T03:22:25.114Z,15.80
2023-05-14T03:24:51.518Z,13.32
2023-05-14T03:27:17.928Z,16.88
2023-05-14T03:29:44.370Z,17.25
2023-05-14T03:32:10.824Z,15.10
2023-05-14T03:34:37.268Z,15.93
2023-05-14T03:37:04.077Z,14.93
2023-05-14T03:39:30.482Z,15.00
2023-05-14T03:41:58.835Z,15.15
2023-05-14T03:44:25.715Z,15.70
2023-05-14T03:46:52.089Z,17.45
2023-05-14T03:49:18.865Z,14.05
2023-05-14T03:51:45.374Z,16.75
2023-05-14T03:54:11.902Z,14.27
2023-05-14T03:56:38.352Z,16.98
2023-05-14T03:59:04.785Z,18.10
2023-05-14T04:01:31.163Z,19.23
2023-05-14T04:03:57.838Z,16.20
2023-05-14T04:06:24.503Z,14.93
2023-05-14T04:08:50.973Z,17.25
2023-05-14T04:11:17.448Z,20.25
2023-05-14T04:13:43.994Z,14.60
2023-05-14T04:16:10.567Z,18.73
2023-05-14T04:18:37.131Z,15.93
2023-05-14T04:21:03.650Z,18.73
2023-05-14T04:23:31.763Z,17.00
2023-05-14T04:25:58.788Z,17.80
2023-05-14T04:28:25.423Z,15.75
2023-05-14T04:30:52.498Z,19.30
2023-05-14T04:33:18.998Z,25.42
2023-05-14T04:35:46.756Z,21.48
2023-05-14T04:38:14.233Z,19.73
2023-05-14T04:40:41.519Z,22.58
2023-05-14T04:43:08.167Z,19.48
2023-05-14T04:45:34.734Z,18.38
2023-05-14T04:48:02.097Z,16.45
2023-05-14T04:50:28.742Z,16.10
2023-05-14T04:52:55.855Z,20.25
2023-05-14T04:55:22.982Z,16.00
2023-05-14T04:57:49.502Z,15.38
2023-05-14T05:00:17.396Z,16.27
2023-05-14T05:02:43.957Z,18.17
2023-05-14T05:05:10.665Z,18.63
2023-05-14T05:07:37.043Z,16.38
2023-05-14T05:10:03.662Z,16.45
2023-05-14T05:12:30.446Z,19.73
2023-05-14T05:14:57.846Z,19.45
2023-05-14T05:17:25.454Z,16.08
2023-05-14T05:19:52.720Z,19.67
2023-05-14T05:22:20.165Z,20.75
2023-05-14T05:24:48.038Z,18.70
2023-05-14T05:27:15.762Z,17.17
2023-05-14T05:29:42.310Z,16.10
2023-05-14T05:32:08.826Z,18.70
2023-05-14T05:34:36.201Z,18.30
2023-05-14T05:37:03.275Z,16.83
2023-05-14T05:39:34.639Z,24.13
2023-05-14T05:42:04.806Z,15.18
2023-05-14T05:44:31.477Z,16.45
2023-05-14T05:46:58.128Z,17.25
2023-05-14T05:49:24.745Z,17.15
2023-05-14T05:51:51.140Z,17.23
2023-05-14T05:54:17.781Z,16.83
2023-05-14T05:56:44.384Z,20.85
2023-05-14T05:59:10.845Z,16.50
2023-05-14T06:01:37.380Z,18.67
2023-05-14T06:04:06.264Z,15.07
2023-05-14T06:06:33.030Z,17.75
2023-05-14T06:08:59.479Z,15.57
2023-05-14T06:11:26.621Z,15.45
2023-05-14T06:13:53.195Z,17.40
2023-05-14T06:16:19.729Z,13.77
2023-05-14T06:18:46.637Z,17.60
2023-05-14T06:21:13.217Z,19.05
2023-05-14T06:23:40.217Z,17.48
2023-05-14T06:26:06.817Z,13.90
2023-05-14T06:28:33.229Z,19.08
2023-05-14T06:30:59.754Z,17.88
2023-05-14T06:33:30.891Z,18.48
2023-05-14T06:36:04.068Z,18.48
2023-05-14T06:38:30.611Z,17.00
2023-05-14T06:40:57.013Z,15.73
2023-05-14T06:43:23.601Z,16.60
2023-05-14T06:45:50.932Z,18.40
2023-05-14T06:48:21.321Z,18.42
2023-05-14T06:50:48.916Z,21.27
2023-05-14T06:53:15.868Z,14.30
2023-05-14T06:55:42.286Z,16.83
2023-05-14T06:58:09.059Z,15.65
2023-05-14T07:00:35.760Z,17.65
2023-05-14T07:03:02.256Z,14.05
2023-05-14T07:05:29.068Z,18.08
2023-05-14T07:07:55.613Z,13.40
2023-05-14T07:10:22.381Z,11.13
2023-05-14T07:12:49.651Z,15.32
2023-05-14T07:15:16.183Z,14.50
2023-05-14T07:17:43.016Z,17.60
2023-05-14T07:20:10.109Z,12.73
2023-05-14T07:22:36.674Z,14.60
2023-05-14T07:25:03.300Z,13.82
2023-05-14T07:27:30.106Z,14.15
2023-05-14T07:29:56.600Z,14.55
2023-05-14T07:32:25.142Z,17.08
2023-05-14T07:34:51.722Z,12.75
2023-05-14T07:37:18.495Z,12.43
2023-05-14T07:39:44.935Z,11.75
2023-05-14T07:42:13.737Z,13.60
2023-05-14T07:44:46.064Z,13.65
2023-05-14T07:47:12.603Z,17.23
2023-05-14T07:49:39.055Z,11.55
2023-05-14T07:52:05.676Z,14.93
2023-05-14T07:54:32.098Z,11.90
2023-05-14T07:56:58.569Z,11.27
2023-05-14T07:59:25.111Z,16.90
2023-05-14T08:01:51.821Z,13.05
2023-05-14T08:04:18.253Z,14.90
2023-05-14T08:06:44.755Z,18.02
2023-05-14T08:09:11.393Z,12.27
2023-05-14T08:11:39.167Z,13.25
2023-05-14T08:14:05.812Z,16.33
2023-05-14T08:16:32.331Z,12.48
2023-05-14T08:18:59.003Z,14.45
2023-05-14T08:21:25.527Z,14.65
2023-05-14T08:23:51.965Z,61.53
2023-05-14T08:26:18.337Z,15.27
2023-05-14T08:28:44.780Z,10.88
2023-05-14T08:31:11.404Z,12.07
2023-05-14T08:33:37.961Z,9.20
2023-05-14T08:36:05.045Z,9.85
2023-05-14T08:38:31.449Z,12.90
2023-05-14T08:41:00.866Z,9.00
2023-05-14T08:43:35.310Z,9.23
2023-05-14T08:46:05.995Z,8.93
2023-05-14T08:48:34.464Z,8.90
2023-05-14T08:51:02.213Z,11.82
2023-05-14T08:53:28.768Z,13.07
2023-05-14T08:55:55.456Z,8.70
2023-05-14T08:58:22.003Z,9.18
2023-05-14T09:00:48.514Z,8.20
2023-05-14T09:03:15.896Z,9.23
2023-05-14T09:05:42.731Z,10.13
2023-05-14T09:08:09.152Z,7.10
2023-05-14T09:10:35.612Z,9.25
2023-05-14T09:13:02.122Z,7.90
2023-05-14T09:15:29.676Z,7.40
2023-05-14T09:17:56.946Z,6.80
2023-05-14T09:20:25.226Z,6.50
2023-05-14T09:22:54.961Z,5.75
2023-05-14T09:25:27.235Z,7.05
2023-05-14T09:27:56.732Z,8.45
2023-05-14T09:30:26.573Z,8.93
2023-05-14T09:32:54.501Z,9.93
2023-05-14T09:35:23.934Z,7.70
2023-05-14T09:37:55.182Z,11.40
2023-05-14T09:40:24.415Z,6.78
2023-05-14T09:42:51.458Z,11.82
2023-05-14T09:45:18.013Z,8.88
2023-05-14T09:47:45.344Z,6.75
2023-05-14T09:50:12.275Z,10.57
2023-05-14T09:52:39.547Z,10.98
2023-05-14T09:55:06.552Z,8.93
2023-05-14T09:57:33.603Z,5.15
2023-05-14T10:00:00.181Z,8.10
2023-05-14T10:02:36.850Z,4.20
2023-05-14T10:05:06.241Z,4.78
2023-05-14T10:07:44.410Z,5.18
2023-05-14T10:10:15.775Z,7.30
2023-05-14T10:12:46.279Z,4.93
2023-05-14T10:15:18.092Z,4.28
2023-05-14T10:17:49.268Z,6.38
2023-05-14T10:20:17.330Z,5.07
2023-05-14T10:22:43.992Z,6.05
2023-05-14T10:25:11.521Z,6.93
2023-05-14T10:27:38.171Z,5.78
2023-05-14T10:30:11.113Z,9.98
2023-05-14T10:32:37.983Z,7.38
2023-05-14T10:35:17.399Z,7.47
2023-05-14T10:37:46.209Z,6.70
2023-05-14T10:40:14.258Z,7.57
2023-05-14T10:42:45.281Z,6.10
2023-05-14T10:45:14.040Z,6.45
2023-05-14T10:47:46.304Z,9.85
2023-05-14T10:50:15.768Z,5.97
2023-05-14T10:52:43.585Z,5.07
2023-05-14T10:57:41.932Z,5.70
2023-05-14T11:00:10.854Z,5.88
2023-05-14T11:02:41.066Z,7.47
2023-05-14T11:07:57.908Z,7.68
2023-05-14T11:10:29.998Z,7.80
2023-05-14T11:13:00.712Z,4.35
2023-05-14T11:15:28.440Z,4.90
2023-05-14T11:17:55.788Z,10.13
2023-05-14T11:20:22.721Z,7.78
2023-05-14T11:22:52.198Z,7.13
2023-05-14T11:25:23.186Z,5.25
2023-05-14T11:27:50.405Z,4.88
2023-05-14T11:30:18.913Z,6.03
2023-05-14T11:32:47.261Z,6.32
2023-05-14T11:35:15.167Z,15.80
2023-05-14T11:37:42.271Z,8.15
2023-05-14T11:40:18.865Z,5.78
2023-05-14T11:42:46.188Z,6.88
2023-05-14T11:45:14.207Z,8.20
2023-05-14T11:50:09.933Z,6.75
2023-05-14T11:52:41.938Z,9.25
2023-05-14T11:55:14.137Z,9.38
2023-05-14T11:57:43.434Z,6.78
2023-05-14T12:00:16.769Z,9.60
2023-05-14T12:02:43.442Z,5.68
2023-05-14T12:05:13.573Z,8.73
2023-05-14T12:07:40.802Z,5.75
2023-05-14T12:10:08.438Z,7.78
2023-05-14T12:12:37.397Z,7.88
2023-05-14T12:15:15.458Z,7.22
2023-05-14T12:17:42.022Z,6.00
2023-05-14T12:20:11.134Z,4.57
2023-05-14T12:22:38.597Z,5.75
2023-05-14T12:25:12.402Z,7.78
2023-05-14T12:27:38.916Z,4.72
2023-05-14T12:32:40.412Z,11.75
2023-05-14T12:35:07.210Z,7.70
2023-05-14T12:37:34.182Z,6.00
2023-05-14T12:40:00.820Z,8.17
2023-05-14T12:42:27.942Z,5.97
2023-05-14T12:44:54.307Z,5.93
2023-05-14T12:47:21.026Z,6.18
2023-05-14T12:49:47.588Z,7.03
2023-05-14T12:54:43.669Z,6.53
2023-05-14T12:57:10.284Z,6.40
2023-05-14T12:59:36.785Z,7.60
2023-05-14T13:02:03.300Z,8.32
2023-05-14T13:04:29.751Z,7.55
2023-05-14T13:06:56.217Z,9.38
2023-05-14T13:09:22.755Z,6.50
2023-05-14T13:11:49.169Z,8.65
2023-05-14T13:14:15.634Z,9.68
2023-05-14T13:16:42.511Z,10.30
2023-05-14T13:19:09.385Z,6.70
2023-05-14T13:21:36.161Z,11.63
2023-05-14T13:24:02.698Z,8.40
2023-05-14T13:26:29.211Z,11.13
2023-05-14T13:28:55.648Z,5.32
2023-05-14T13:31:22.183Z,7.38
2023-05-14T13:33:48.844Z,7.28
2023-05-14T13:36:16.316Z,6.38
2023-05-14T13:38:42.837Z,7.38
2023-05-14T13:41:09.266Z,6.22
2023-05-14T13:43:36.001Z,11.90
2023-05-14T13:46:04.259Z,8.18
2023-05-14T13:48:33.707Z,8.10
2023-05-14T13:51:00.430Z,8.25
2023-05-14T13:53:27.030Z,6.53
2023-05-14T13:55:58.260Z,7.32
2023-05-14T13:58:25.517Z,6.75
2023-05-14T14:00:52.868Z,8.65
2023-05-14T14:03:19.691Z,8.45
2023-05-14T14:05:46.278Z,8.95
2023-05-14T14:08:23.384Z,5.85
2023-05-14T14:10:51.044Z,9.93
2023-05-14T14:13:17.628Z,10.30
2023-05-14T14:15:44.344Z,8.63
2023-05-14T14:18:10.934Z,6.43
2023-05-14T14:20:37.433Z,7.97
2023-05-14T14:23:04.119Z,7.93
2023-05-14T14:25:30.660Z,6.25
2023-05-14T14:27:57.430Z,5.90
2023-05-14T14:30:23.875Z,4.53
2023-05-14T14:32:51.154Z,6.93
2023-05-14T14:35:19.449Z,7.30
2023-05-14T14:37:49.206Z,7.05
2023-05-14T14:40:17.208Z,8.20
2023-05-14T14:45:11.478Z,7.45
2023-05-14T14:47:38.359Z,8.45
2023-05-14T14:50:06.351Z,7.88
2023-05-14T14:52:33.032Z,7.30
2023-05-14T14:54:59.704Z,7.30
2023-05-14T14:57:27.276Z,8.60
2023-05-14T14:59:53.704Z,6.13
2023-05-14T15:02:20.694Z,7.72
2023-05-14T15:04:47.183Z,27.75
2023-05-14T15:07:15.881Z,14.75
2023-05-14T15:09:42.447Z,11.50
2023-05-14T15:12:10.283Z,7.82
2023-05-14T15:14:36.736Z,7.60
2023-05-14T15:17:03.309Z,8.52
2023-05-14T15:19:31.214Z,7.20
2023-05-14T15:21:58.635Z,9.35
2023-05-14T15:24:26.442Z,9.73
2023-05-14T15:26:53.777Z,8.10
2023-05-14T15:29:20.594Z,7.45
2023-05-14T15:31:47.447Z,9.35
2023-05-14T15:34:14.120Z,8.25
2023-05-14T15:36:40.725Z,6.88
2023-05-14T15:39:10.516Z,12.73
2023-05-14T15:41:37.225Z,9.95
2023-05-14T15:44:03.796Z,10.38
2023-05-14T15:46:30.953Z,10.55
2023-05-14T15:48:58.161Z,6.28
2023-05-14T15:51:24.698Z,11.15
2023-05-14T15:53:53.258Z,7.85
2023-05-14T15:56:20.792Z,6.50
2023-05-14T15:58:48.273Z,7.57
2023-05-14T16:01:14.788Z,7.22
2023-05-14T16:03:41.546Z,7.28
2023-05-14T16:06:08.094Z,8.73
2023-05-14T16:08:34.526Z,8.05
2023-05-14T16:11:01.012Z,7.03
2023-05-14T16:13:27.566Z,9.45
2023-05-14T16:15:54.377Z,7.88
2023-05-14T16:18:22.303Z,6.10
2023-05-14T16:20:49.053Z,6.43
2023-05-14T16:23:15.534Z,7.25
2023-05-14T16:25:42.577Z,9.07
2023-05-14T16:28:09.142Z,7.05
2023-05-14T16:30:35.611Z,7.18
2023-05-14T16:33:02.256Z,7.82
2023-05-14T16:35:28.950Z,8.05
2023-05-14T16:37:56.010Z,6.10
2023-05-14T16:40:23.828Z,7.97
2023-05-14T16:45:18.090Z,7.32
2023-05-14T16:47:44.695Z,5.55
2023-05-14T16:50:11.586Z,6.75
2023-05-14T16:52:38.081Z,8.93
2023-05-14T16:55:05.115Z,8.20
2023-05-14T16:57:31.815Z,7.93
2023-05-14T16:59:58.510Z,7.32
2023-05-14T17:02:25.641Z,7.55
2023-05-14T17:04:54.074Z,8.83
2023-05-14T17:07:20.680Z,6.90
2023-05-14T17:09:47.367Z,7.43
2023-05-14T17:12:13.950Z,5.13
2023-05-14T17:14:40.537Z,7.32
2023-05-14T17:17:07.261Z,7.32
2023-05-14T17:19:33.746Z,7.18
2023-05-14T17:22:00.567Z,8.25
2023-05-14T17:24:27.278Z,7.53
2023-05-14T17:26:53.770Z,9.35
2023-05-14T17:29:20.861Z,6.68
2023-05-14T17:31:48.903Z,7.13
2023-05-14T17:34:15.475Z,5.60
2023-05-14T17:36:42.576Z,5.70
2023-05-14T17:39:09.428Z,6.68
2023-05-14T17:41:36.080Z,5.80
2023-05-14T17:44:02.686Z,9.52
2023-05-14T17:46:29.513Z,8.13
2023-05-14T17:48:56.642Z,7.65
2023-05-14T17:51:23.208Z,7.13
2023-05-14T17:53:49.777Z,8.80
2023-05-14T17:56:18.429Z,7.53
2023-05-14T17:58:47.070Z,8.48
2023-05-14T18:01:13.586Z,7.93
2023-05-14T18:03:40.182Z,11.07
2023-05-14T18:06:06.698Z,11.68
2023-05-14T18:08:34.172Z,11.98
2023-05-14T18:11:01.398Z,12.13
2023-05-14T18:13:28.278Z,10.10
2023-05-14T18:15:56.696Z,11.15
2023-05-14T18:18:24.218Z,11.07
2023-05-14T18:20:51.904Z,12.98
2023-05-14T18:23:18.996Z,12.48
2023-05-14T18:25:45.637Z,15.05
2023-05-14T18:28:12.577Z,15.55
2023-05-14T18:30:39.607Z,11.45
2023-05-14T18:33:06.276Z,13.00
2023-05-14T18:35:33.252Z,12.75
2023-05-14T18:37:59.987Z,16.30
2023-05-14T18:40:27.106Z,13.13
2023-05-14T18:42:53.880Z,12.38
2023-05-14T18:45:21.791Z,13.02
2023-05-14T18:47:48.741Z,13.02
2023-05-14T18:50:15.435Z,12.68
2023-05-14T18:52:42.094Z,14.18
2023-05-14T18:55:09.331Z,13.18
2023-05-14T18:57:37.328Z,11.98
2023-05-14T19:00:05.570Z,10.27
2023-05-14T19:04:59.340Z,10.60
2023-05-14T19:07:28.193Z,11.02
2023-05-14T19:09:54.817Z,11.23
2023-05-14T19:12:21.608Z,10.95
2023-05-14T19:14:48.322Z,9.63
2023-05-14T19:17:15.826Z,20.80
2023-05-14T19:19:43.673Z,11.65
2023-05-14T19:22:10.528Z,11.40
2023-05-14T19:24:37.889Z,12.23
2023-05-14T19:27:04.839Z,8.77
2023-05-14T19:29:33.698Z,10.68
2023-05-14T19:32:00.760Z,14.20
2023-05-14T19:34:27.558Z,14.18
2023-05-14T19:36:55.550Z,10.00
2023-05-14T19:39:22.376Z,9.95
2023-05-14T19:41:48.853Z,10.25
2023-05-14T19:44:15.901Z,12.23
2023-05-14T19:46:45.969Z,10.30
2023-05-14T19:49:13.517Z,8.77
2023-05-14T19:51:39.984Z,9.35
2023-05-14T19:54:09.342Z,11.23
2023-05-14T19:56:35.869Z,12.45
2023-05-14T19:59:02.417Z,9.38
2023-05-14T20:01:29.540Z,9.38
2023-05-14T20:03:56.000Z,12.63
2023-05-14T20:06:22.571Z,10.68
2023-05-14T20:08:49.055Z,14.32
2023-05-14T20:11:17.929Z,11.93
2023-05-14T20:13:44.385Z,13.18
2023-05-14T20:16:11.473Z,9.20
2023-05-14T20:18:38.317Z,7.03
2023-05-14T20:21:05.570Z,9.73
2023-05-14T20:23:32.374Z,11.95
2023-05-14T20:26:01.818Z,12.55
2023-05-14T20:28:28.407Z,12.20
2023-05-14T20:30:55.305Z,11.13
2023-05-14T20:33:21.942Z,10.70
2023-05-14T20:35:48.398Z,14.48
2023-05-14T20:38:14.860Z,10.43
2023-05-14T20:40:41.319Z,11.00
2023-05-14T20:43:07.790Z,11.50
2023-05-14T20:45:34.285Z,13.23
2023-05-14T20:48:00.992Z,10.27
2023-05-14T20:50:28.003Z,12.95
2023-05-14T20:52:55.302Z,11.00
2023-05-14T20:55:21.959Z,16.13
2023-05-14T20:57:49.665Z,8.98
2023-05-14T21:00:16.429Z,11.68
2023-05-14T21:02:42.989Z,15.35
2023-05-14T21:05:09.663Z,13.43
2023-05-14T21:07:37.282Z,11.18
2023-05-14T21:10:04.269Z,13.38
2023-05-14T21:12:31.082Z,12.32
2023-05-14T21:14:57.502Z,14.13
2023-05-14T21:17:23.980Z,12.10
2023-05-14T21:19:50.488Z,14.75
2023-05-14T21:22:16.905Z,11.27
2023-05-14T21:24:43.405Z,17.67
2023-05-14T21:27:10.184Z,16.25
2023-05-14T21:29:36.760Z,12.88
2023-05-14T21:32:03.482Z,12.30
2023-05-14T21:34:32.013Z,11.73
2023-05-14T21:36:58.831Z,13.07
2023-05-14T21:39:25.312Z,15.95
2023-05-14T21:41:51.932Z,12.65
2023-05-14T21:44:18.407Z,13.35
2023-05-14T21:46:44.863Z,17.20
2023-05-14T21:49:11.356Z,11.60
2023-05-14T21:51:37.832Z,10.45
2023-05-14T21:54:04.529Z,13.75
2023-05-14T21:56:30.992Z,15.43
2023-05-14T21:58:57.490Z,13.25
2023-05-14T22:01:24.014Z,13.65
2023-05-14T22:03:50.681Z,11.20
2023-05-14T22:06:17.135Z,15.38
2023-05-14T22:08:43.537Z,16.33
2023-05-14T22:11:10.056Z,13.32
2023-05-14T22:13:40.700Z,15.38
2023-05-14T22:16:13.173Z,11.65
2023-05-14T22:18:40.647Z,13.13
2023-05-14T22:21:07.260Z,17.35
2023-05-14T22:23:33.818Z,12.65
2023-05-14T22:26:00.396Z,12.73
2023-05-14T22:28:27.017Z,15.27
2023-05-14T22:30:53.682Z,12.35
2023-05-14T22:33:20.440Z,17.52
2023-05-14T22:35:46.959Z,12.70
2023-05-14T22:38:14.084Z,16.42
2023-05-14T22:40:40.782Z,15.48
2023-05-14T22:43:07.240Z,14.63
2023-05-14T22:45:33.796Z,12.95
2023-05-14T22:48:00.413Z,17.52
2023-05-14T22:50:26.960Z,14.90
2023-05-14T22:52:53.490Z,15.25
2023-05-14T22:55:19.985Z,15.05
2023-05-14T22:57:46.521Z,15.30
2023-05-14T23:00:13.858Z,13.25
2023-05-14T23:02:40.574Z,15.65
2023-05-14T23:05:09.124Z,15.02
2023-05-14T23:07:35.832Z,13.38
2023-05-14T23:10:02.253Z,19.60
2023-05-14T23:12:28.796Z,17.02
2023-05-14T23:14:55.866Z,17.55
2023-05-14T23:17:22.336Z,17.80
2023-05-14T23:19:49.202Z,17.63
2023-05-14T23:22:15.763Z,18.02
2023-05-14T23:24:42.308Z,14.70
2023-05-14T23:27:08.941Z,16.90
2023-05-14T23:29:35.617Z,12.55
2023-05-14T23:32:02.122Z,17.67
2023-05-14T23:34:28.697Z,16.23
2023-05-14T23:36:55.339Z,15.93
2023-05-14T23:39:21.914Z,14.43
2023-05-14T23:41:48.352Z,16.38
2023-05-14T23:44:15.359Z,16.10
2023-05-14T23:46:41.966Z,16.08
2023-05-14T23:49:08.481Z,16.55
2023-05-14T23:51:35.180Z,15.77
2023-05-14T23:54:01.679Z,13.02
2023-05-14T23:56:29.239Z,19.10
2023-05-14T23:58:56.007Z,18.47
